Time;durP1;ratioP1;P1;durP2;ratioP2;P2;SDS_P1;SDS_P2;PMS_P1;PMS_P2;Temp;Humidity;BMP_temperature;BMP_pressure;BME280_temperature;BME280_humidity;BME280_pressure;Samples;Min_cycle;Max_cycle;Signal;HPM_P1;HPM_P2
2022/05/01 00:00:30;;;;;;;20.07;17.70;;;12.90;99.90;;;;;;5073360;28;20205;-57
2022/05/01 00:02:57;;;;;;;21.00;17.67;;;12.90;99.90;;;;;;5072937;28;20201;-56
2022/05/01 00:05:26;;;;;;;19.30;17.20;;;13.00;99.90;;;;;;5073111;28;20212;-57
2022/05/01 00:07:53;;;;;;;19.70;16.53;;;13.00;99.90;;;;;;5072879;28;20225;-57
2022/05/01 00:10:19;;;;;;;20.60;18.00;;;13.10;99.90;;;;;;5073280;28;20221;-57
2022/05/01 00:12:46;;;;;;;19.53;17.43;;;13.10;99.90;;;;;;5073007;28;20217;-57
2022/05/01 00:15:13;;;;;;;20.03;17.77;;;13.20;99.90;;;;;;5073211;28;20200;-57
2022/05/01 00:17:40;;;;;;;22.90;19.17;;;13.30;99.90;;;;;;5073123;28;20251;-56
2022/05/01 00:20:07;;;;;;;20.07;17.30;;;13.20;99.90;;;;;;5072702;28;20205;-56
2022/05/01 00:22:36;;;;;;;20.00;17.80;;;13.20;99.90;;;;;;5072516;28;20670;-56
2022/05/01 00:25:02;;;;;;;24.13;18.83;;;13.20;99.90;;;;;;5072892;28;20227;-57
2022/05/01 00:27:31;;;;;;;21.13;18.63;;;13.00;99.90;;;;;;5072935;28;20221;-57
2022/05/01 00:29:57;;;;;;;21.70;19.23;;;13.00;99.90;;;;;;5072630;28;20236;-56
2022/05/01 00:32:25;;;;;;;22.03;18.57;;;13.00;99.90;;;;;;5072425;28;20212;-56
2022/05/01 00:37:38;;;;;;;23.50;17.97;;;12.90;99.90;;;;;;5072718;28;20278;-55
2022/05/01 00:40:05;;;;;;;22.23;19.83;;;12.90;99.90;;;;;;5072164;28;20303;-55
2022/05/01 00:42:32;;;;;;;22.83;18.80;;;13.00;99.90;;;;;;5072307;28;20208;-57
2022/05/01 00:44:58;;;;;;;20.53;18.37;;;12.90;99.90;;;;;;5072804;28;20629;-56
2022/05/01 00:47:25;;;;;;;23.97;19.33;;;12.90;99.90;;;;;;5072288;28;20434;-57
2022/05/01 00:49:52;;;;;;;25.03;19.30;;;13.00;99.90;;;;;;5072437;28;20315;-57
2022/05/01 00:52:22;;;;;;;26.50;20.00;;;12.90;99.90;;;;;;5072184;28;20205;-57
2022/05/01 00:54:50;;;;;;;27.23;20.03;;;12.90;99.90;;;;;;5072435;28;20669;-56
2022/05/01 00:57:18;;;;;;;23.70;19.17;;;13.00;99.90;;;;;;5072130;28;20240;-56
2022/05/01 00:59:46;;;;;;;22.93;18.57;;;12.90;99.90;;;;;;5072228;28;20197;-56
2022/05/01 01:02:13;;;;;;;24.03;20.23;;;13.00;99.90;;;;;;5072104;28;20208;-57
2022/05/01 01:04:40;;;;;;;26.23;20.07;;;13.10;99.90;;;;;;5072430;28;20212;-56
2022/05/01 01:07:06;;;;;;;26.10;20.27;;;13.10;99.90;;;;;;5071933;28;20228;-56
2022/05/01 01:09:35;;;;;;;27.13;20.70;;;13.10;99.90;;;;;;5072111;28;20727;-56
2022/05/01 01:14:48;;;;;;;23.00;20.27;;;13.00;99.90;;;;;;5072052;28;20234;-56
2022/05/01 01:17:15;;;;;;;26.90;20.47;;;13.00;99.90;;;;;;5072054;28;20278;-56
2022/05/01 01:19:42;;;;;;;25.67;20.43;;;13.00;99.90;;;;;;5071841;28;20208;-56
2022/05/01 01:22:10;;;;;;;24.73;20.13;;;13.00;99.90;;;;;;5071711;28;20616;-56
2022/05/01 01:24:39;;;;;;;25.60;21.67;;;13.10;99.90;;;;;;5071985;28;20668;-56
2022/05/01 01:27:06;;;;;;;26.40;19.70;;;13.10;99.90;;;;;;5071985;28;20726;-56
2022/05/01 01:32:19;;;;;;;26.63;19.97;;;13.00;99.90;;;;;;5071853;28;20204;-55
2022/05/01 01:34:49;;;;;;;27.67;21.30;;;13.00;99.90;;;;;;5072364;28;20219;-56
2022/05/01 01:37:18;;;;;;;25.80;21.23;;;13.00;99.90;;;;;;5072182;28;20320;-55
2022/05/01 01:39:46;;;;;;;28.70;21.57;;;13.00;99.90;;;;;;5072086;28;20209;-55
2022/05/01 01:42:14;;;;;;;29.10;21.17;;;12.90;99.90;;;;;;5071821;28;20245;-56
2022/05/01 01:44:41;;;;;;;25.33;19.67;;;12.90;99.90;;;;;;5071912;28;20245;-56
2022/05/01 01:47:08;;;;;;;25.03;20.77;;;12.90;99.90;;;;;;5071665;28;20229;-55
2022/05/01 01:49:34;;;;;;;26.07;21.13;;;12.80;99.90;;;;;;5072132;28;20225;-56
2022/05/01 01:52:01;;;;;;;21.67;19.37;;;12.80;99.90;;;;;;5072010;28;20217;-56
2022/05/01 01:54:29;;;;;;;24.00;20.53;;;12.90;99.90;;;;;;5075598;28;20669;-55
2022/05/01 01:59:24;;;;;;;23.43;19.73;;;12.90;99.90;;;;;;5095844;22;20233;-57
2022/05/01 02:01:50;;;;;;;24.47;20.50;;;12.90;99.90;;;;;;5075102;28;20201;-58
2022/05/01 02:04:17;;;;;;;25.67;20.87;;;12.80;99.90;;;;;;5074953;28;20231;-58
2022/05/01 02:06:44;;;;;;;27.53;21.10;;;12.80;99.90;;;;;;5075202;28;20287;-58
2022/05/01 02:09:12;;;;;;;22.93;20.47;;;12.80;99.90;;;;;;5075130;28;20515;-58
2022/05/01 02:11:40;;;;;;;25.37;21.23;;;12.90;99.90;;;;;;5075104;28;20200;-58
2022/05/01 02:14:06;;;;;;;25.07;20.83;;;12.90;99.90;;;;;;5074926;28;20204;-58
2022/05/01 02:16:34;;;;;;;29.27;21.07;;;12.80;99.90;;;;;;5074888;28;20258;-58
2022/05/01 02:19:01;;;;;;;24.33;20.93;;;12.70;99.90;;;;;;5074777;28;20320;-58
2022/05/01 02:21:36;;;;;;;25.33;21.47;;;12.50;99.90;;;;;;5074731;28;20689;-58
2022/05/01 02:24:06;;;;;;;26.03;21.07;;;12.40;99.90;;;;;;5074652;28;20209;-57
2022/05/01 02:26:35;;;;;;;24.50;21.07;;;12.10;99.90;;;;;;5074585;28;20255;-57
2022/05/01 02:29:05;;;;;;;24.33;20.80;;;11.80;99.90;;;;;;5074544;28;20606;-57
2022/05/01 02:31:32;;;;;;;24.60;20.27;;;11.80;99.90;;;;;;5074428;28;20264;-58
2022/05/01 02:33:58;;;;;;;24.20;20.63;;;11.90;99.90;;;;;;5074489;28;20621;-57
2022/05/01 02:36:25;;;;;;;23.17;20.60;;;11.90;99.90;;;;;;5074683;28;20232;-57
2022/05/01 02:38:52;;;;;;;28.27;21.37;;;11.80;99.90;;;;;;5074457;28;20221;-58
2022/05/01 02:41:19;;;;;;;25.83;20.10;;;11.70;99.90;;;;;;5074768;28;20197;-58
2022/05/01 02:43:46;;;;;;;25.80;21.83;;;11.80;99.90;;;;;;5074160;28;20205;-58
2022/05/01 02:46:15;;;;;;;27.47;22.23;;;12.00;99.90;;;;;;5074142;28;20299;-57
2022/05/01 02:48:42;;;;;;;23.17;20.23;;;12.10;99.90;;;;;;5074310;28;20221;-58
2022/05/01 02:51:09;;;;;;;23.97;19.97;;;12.10;99.90;;;;;;5074352;28;20224;-57
2022/05/01 02:53:36;;;;;;;23.93;20.37;;;12.20;99.90;;;;;;5073939;28;20240;-57
2022/05/01 02:56:03;;;;;;;25.87;20.73;;;12.20;99.90;;;;;;5074195;28;20220;-57
2022/05/01 02:58:30;;;;;;;26.23;20.20;;;12.30;99.90;;;;;;5073931;28;20283;-58
2022/05/01 03:00:58;;;;;;;26.70;20.27;;;12.30;99.90;;;;;;5074156;28;20201;-57
2022/05/01 03:03:26;;;;;;;27.30;21.33;;;12.30;99.90;;;;;;5073401;28;20201;-57
2022/05/01 03:05:52;;;;;;;25.93;21.07;;;12.20;99.90;;;;;;5073928;28;20680;-58
2022/05/01 03:08:20;;;;;;;28.07;20.93;;;12.10;99.90;;;;;;5073982;28;20225;-57
2022/05/01 03:10:47;;;;;;;29.03;21.93;;;11.90;99.90;;;;;;5073916;28;20274;-58
2022/05/01 03:13:13;;;;;;;25.87;21.63;;;11.70;99.90;;;;;;5073812;28;20216;-57
2022/05/01 03:15:40;;;;;;;29.23;21.97;;;11.60;99.90;;;;;;5074314;28;20208;-58
2022/05/01 03:23:37;;;;;;;24.63;21.23;;;11.90;99.90;;;;;;5073761;28;20227;-57
2022/05/01 03:26:04;;;;;;;28.30;22.23;;;11.90;99.90;;;;;;5074120;28;20209;-57
2022/05/01 03:28:31;;;;;;;28.33;22.03;;;12.00;99.90;;;;;;5074359;28;20229;-58
2022/05/01 03:30:57;;;;;;;29.00;22.03;;;12.00;99.90;;;;;;5074738;28;20221;-57
2022/05/01 03:33:25;;;;;;;24.80;21.30;;;12.00;99.90;;;;;;5073471;28;20208;-57
2022/05/01 03:35:53;;;;;;;26.63;21.93;;;12.10;99.90;;;;;;5073513;28;20289;-57
2022/05/01 03:38:21;;;;;;;29.47;21.77;;;12.30;99.90;;;;;;5073268;28;20224;-57
2022/05/01 03:40:48;;;;;;;26.37;21.13;;;12.30;99.90;;;;;;5073573;28;20201;-57
2022/05/01 03:43:15;;;;;;;24.37;21.07;;;12.40;99.90;;;;;;5073337;28;20291;-57
2022/05/01 03:45:42;;;;;;;27.57;21.77;;;12.30;99.90;;;;;;5073382;28;20208;-57
2022/05/01 03:48:09;;;;;;;25.97;20.67;;;12.30;99.90;;;;;;5073693;28;20221;-57
2022/05/01 03:50:36;;;;;;;25.63;21.20;;;12.20;99.90;;;;;;5073130;28;20225;-58
2022/05/01 03:53:04;;;;;;;26.13;20.23;;;12.20;99.90;;;;;;5072933;28;20648;-57
2022/05/01 03:55:33;;;;;;;28.93;21.03;;;12.30;99.90;;;;;;5073445;28;20288;-57
2022/05/01 03:58:00;;;;;;;26.27;20.70;;;12.40;99.90;;;;;;5073143;28;20244;-57
2022/05/01 04:00:27;;;;;;;26.33;20.80;;;12.50;99.90;;;;;;5073238;28;20717;-57
2022/05/01 04:02:55;;;;;;;27.17;20.77;;;12.50;99.90;;;;;;5072716;28;20691;-58
2022/05/01 04:05:21;;;;;;;26.40;20.83;;;12.50;99.90;;;;;;5072874;28;20255;-57
2022/05/01 04:07:48;;;;;;;26.87;21.20;;;12.40;99.90;;;;;;5072976;28;20274;-57
2022/05/01 04:10:16;;;;;;;27.27;21.47;;;12.40;99.90;;;;;;5072872;28;20216;-57
2022/05/01 04:12:44;;;;;;;25.83;21.10;;;12.50;99.90;;;;;;5072592;28;20258;-58
2022/05/01 04:15:14;;;;;;;25.50;21.57;;;12.50;99.90;;;;;;5072209;28;20205;-57
2022/05/01 04:17:41;;;;;;;28.43;23.17;;;12.60;99.90;;;;;;5072497;28;20236;-58
2022/05/01 04:20:10;;;;;;;27.80;20.87;;;12.60;99.90;;;;;;5072778;28;20211;-58
2022/05/01 04:22:38;;;;;;;26.37;21.40;;;12.70;99.90;;;;;;5072644;28;20255;-58
2022/05/01 04:25:06;;;;;;;25.97;21.70;;;12.60;99.90;;;;;;5072517;28;20653;-57
2022/05/01 04:27:34;;;;;;;26.50;21.47;;;12.70;99.90;;;;;;5072369;28;20575;-57
2022/05/01 04:30:01;;;;;;;27.20;20.87;;;12.80;99.90;;;;;;5072466;28;20205;-59
2022/05/01 04:32:28;;;;;;;23.67;20.53;;;12.70;99.90;;;;;;5072070;28;20209;-59
2022/05/01 04:34:55;;;;;;;27.77;21.70;;;12.70;99.90;;;;;;5072582;28;20240;-58
2022/05/01 04:37:22;;;;;;;24.60;20.33;;;12.60;99.90;;;;;;5072453;28;20229;-57
2022/05/01 04:39:49;;;;;;;28.67;22.10;;;12.60;99.90;;;;;;5072368;28;20240;-60
2022/05/01 04:42:17;;;;;;;28.43;20.87;;;12.60;99.90;;;;;;5071796;28;20228;-57
2022/05/01 04:44:45;;;;;;;28.03;22.00;;;12.70;99.90;;;;;;5072017;28;20687;-58
2022/05/01 04:47:12;;;;;;;29.27;22.30;;;12.70;99.90;;;;;;5072396;28;20211;-58
2022/05/01 04:49:39;;;;;;;25.73;21.60;;;12.70;99.90;;;;;;5072258;28;20208;-60
2022/05/01 04:52:06;;;;;;;24.73;20.40;;;12.70;99.90;;;;;;5071774;28;20707;-57
2022/05/01 04:54:33;;;;;;;24.93;20.47;;;12.70;99.90;;;;;;5071974;28;20293;-58
2022/05/01 04:57:06;;;;;;;24.17;20.53;;;12.70;99.90;;;;;;5071783;28;20741;-58
2022/05/01 04:59:32;;;;;;;26.97;21.07;;;12.70;99.90;;;;;;5072126;28;20213;-59
2022/05/01 05:02:00;;;;;;;30.00;22.03;;;12.80;99.90;;;;;;5072111;28;20590;-58
2022/05/01 05:04:27;;;;;;;28.80;21.17;;;12.70;99.90;;;;;;5071593;28;20676;-59
2022/05/01 05:06:54;;;;;;;25.07;20.47;;;12.70;99.90;;;;;;5071884;28;20295;-58
2022/05/01 05:12:07;;;;;;;27.57;21.47;;;12.90;99.90;;;;;;5072139;28;20349;-59
2022/05/01 05:14:34;;;;;;;25.73;20.37;;;13.00;99.90;;;;;;5071975;28;20280;-58
2022/05/01 05:17:06;;;;;;;25.70;20.60;;;13.00;99.90;;;;;;5071915;28;20213;-59
2022/05/01 05:19:33;;;;;;;26.00;20.90;;;13.10;99.90;;;;;;5071969;28;20205;-58
2022/05/01 05:21:59;;;;;;;30.67;22.20;;;13.00;99.90;;;;;;5072021;28;20205;-59
2022/05/01 05:24:26;;;;;;;26.57;21.20;;;13.00;99.90;;;;;;5071427;28;20212;-58
2022/05/01 05:26:53;;;;;;;28.03;22.53;;;13.10;99.90;;;;;;5071644;28;20266;-58
2022/05/01 05:29:19;;;;;;;28.70;22.17;;;13.10;99.90;;;;;;5071648;28;20286;-58
2022/05/01 05:31:46;;;;;;;26.77;22.23;;;12.90;99.90;;;;;;5071643;28;20236;-58
2022/05/01 05:34:14;;;;;;;31.73;23.20;;;13.00;99.90;;;;;;5071435;28;20209;-57
2022/05/01 05:36:41;;;;;;;27.03;21.60;;;13.10;99.90;;;;;;5071612;28;20231;-56
2022/05/01 05:39:08;;;;;;;29.43;22.17;;;13.10;99.90;;;;;;5071456;28;20228;-58
2022/05/01 05:41:35;;;;;;;28.60;21.90;;;13.10;99.90;;;;;;5071780;28;20265;-58
2022/05/01 05:44:01;;;;;;;29.57;21.73;;;13.30;99.90;;;;;;5071446;28;20204;-57
2022/05/01 05:46:28;;;;;;;28.83;22.00;;;13.40;99.90;;;;;;5071556;28;20212;-60
2022/05/01 05:48:55;;;;;;;28.40;21.30;;;13.60;99.90;;;;;;5071371;28;20716;-57
2022/05/01 05:51:23;;;;;;;28.67;22.10;;;13.60;99.90;;;;;;5071563;28;20225;-58
2022/05/01 05:53:50;;;;;;;27.57;21.53;;;13.60;99.90;;;;;;5071399;28;20204;-58
2022/05/01 05:56:17;;;;;;;27.90;21.37;;;13.60;99.90;;;;;;5071455;28;20243;-58
2022/05/01 05:58:45;;;;;;;31.27;22.73;;;13.60;99.90;;;;;;5071157;28;20626;-57
2022/05/01 06:01:12;;;;;;;29.03;22.40;;;13.60;99.90;;;;;;5071396;28;20242;-57
2022/05/01 06:03:39;;;;;;;27.93;22.77;;;13.60;99.90;;;;;;5071110;28;20217;-57
2022/05/01 06:06:06;;;;;;;32.67;24.70;;;13.60;99.90;;;;;;5071161;28;20254;-58
2022/05/01 06:08:35;;;;;;;28.87;23.53;;;13.60;99.90;;;;;;5071235;28;20747;-59
2022/05/01 06:11:01;;;;;;;28.77;23.33;;;13.60;99.90;;;;;;5071072;28;20263;-58
2022/05/01 06:13:28;;;;;;;30.27;22.07;;;13.70;99.90;;;;;;5071106;28;20213;-57
2022/05/01 06:15:55;;;;;;;27.83;23.10;;;13.50;99.90;;;;;;5071206;28;20209;-58
2022/05/01 06:18:22;;;;;;;29.70;22.20;;;13.40;99.90;;;;;;5071127;28;20227;-58
2022/05/01 06:20:49;;;;;;;30.23;22.37;;;13.60;99.90;;;;;;5071134;28;20209;-58
2022/05/01 06:23:16;;;;;;;27.83;20.77;;;13.70;99.90;;;;;;5071109;28;20259;-58
2022/05/01 06:25:46;;;;;;;22.33;19.57;;;13.80;99.90;;;;;;5071190;28;20254;-57
2022/05/01 06:28:14;;;;;;;24.73;20.37;;;13.90;99.90;;;;;;5071036;28;20274;-58
2022/05/01 06:30:43;;;;;;;26.53;20.53;;;14.30;99.90;;;;;;5070949;28;20661;-57
2022/05/01 06:33:11;;;;;;;24.83;20.80;;;14.50;99.90;;;;;;5070590;28;20669;-67
2022/05/01 06:35:38;;;;;;;26.17;19.83;;;14.80;99.90;;;;;;5071322;28;20205;-59
2022/05/01 06:38:05;;;;;;;23.97;18.87;;;14.90;99.90;;;;;;5071694;28;20255;-59
2022/05/01 06:40:32;;;;;;;22.20;18.47;;;14.30;99.90;;;;;;5074485;28;20200;-59
2022/05/01 06:43:00;;;;;;;24.80;19.97;;;14.00;99.90;;;;;;5074154;28;20204;-60
2022/05/01 06:45:27;;;;;;;23.87;19.80;;;13.70;99.90;;;;;;5074267;28;20201;-60
2022/05/01 06:47:54;;;;;;;24.87;20.47;;;13.80;99.90;;;;;;5074334;28;20640;-59
2022/05/01 06:50:21;;;;;;;29.13;22.03;;;14.00;99.90;;;;;;5074522;28;20209;-59
2022/05/01 06:52:48;;;;;;;25.57;20.77;;;14.30;99.90;;;;;;5074045;28;20933;-59
2022/05/01 06:55:18;;;;;;;23.33;20.00;;;14.60;99.90;;;;;;5074335;28;20231;-60
2022/05/01 06:57:44;;;;;;;26.07;20.77;;;14.50;99.90;;;;;;5074334;28;20232;-60
2022/05/01 07:00:14;;;;;;;23.53;19.87;;;14.60;99.90;;;;;;5074065;28;20205;-59
2022/05/01 07:02:45;;;;;;;25.23;19.13;;;14.70;99.90;;;;;;5074187;28;20284;-59
2022/05/01 07:05:12;;;;;;;21.20;17.57;;;14.70;99.90;;;;;;5074282;28;20200;-59
2022/05/01 07:07:38;;;;;;;24.00;19.20;;;14.70;99.90;;;;;;5074321;28;20225;-59
2022/05/01 07:10:07;;;;;;;21.63;18.40;;;14.80;99.90;;;;;;5074018;28;20205;-59
2022/05/01 07:12:33;;;;;;;22.07;18.27;;;14.70;99.90;;;;;;5073772;28;20640;-59
2022/05/01 07:15:00;;;;;;;25.33;19.17;;;14.80;99.90;;;;;;5074107;28;20205;-59
2022/05/01 07:17:28;;;;;;;21.17;16.90;;;15.00;99.90;;;;;;5073907;28;20229;-59
2022/05/01 07:19:55;;;;;;;23.83;19.53;;;15.10;99.90;;;;;;5073874;28;20213;-58
2022/05/01 07:22:22;;;;;;;25.97;19.40;;;15.10;99.90;;;;;;5073783;28;20202;-59
2022/05/01 07:24:48;;;;;;;21.17;18.13;;;15.20;99.90;;;;;;5073575;28;20270;-59
2022/05/01 07:27:15;;;;;;;19.03;15.30;;;15.20;99.90;;;;;;5073467;28;20262;-59
2022/05/01 07:29:42;;;;;;;24.77;19.43;;;15.20;99.90;;;;;;5073695;28;20213;-60
2022/05/01 07:32:10;;;;;;;21.73;17.80;;;15.30;99.90;;;;;;5073871;28;20229;-59
2022/05/01 07:34:38;;;;;;;20.27;17.40;;;14.90;99.90;;;;;;5073668;28;20299;-60
2022/05/01 07:37:05;;;;;;;24.67;17.87;;;14.10;99.90;;;;;;5073580;28;20205;-60
2022/05/01 07:39:32;;;;;;;22.10;19.40;;;13.90;99.90;;;;;;5072873;28;20906;-64
2022/05/01 07:41:59;;;;;;;19.77;16.33;;;14.10;99.90;;;;;;5073274;28;20209;-62
2022/05/01 07:44:26;;;;;;;21.67;16.50;;;14.40;99.90;;;;;;5073049;28;20209;-57
2022/05/01 07:46:53;;;;;;;19.57;16.53;;;14.70;99.90;;;;;;5073626;28;20209;-56
2022/05/01 07:49:20;;;;;;;18.87;16.80;;;15.20;99.90;;;;;;5073174;28;20225;-55
2022/05/01 07:51:48;;;;;;;17.40;15.20;;;15.80;99.90;;;;;;5073318;28;20252;-56
2022/05/01 07:54:15;;;;;;;17.77;15.87;;;16.30;99.90;;;;;;5072734;28;20270;-55
2022/05/01 07:56:42;;;;;;;22.33;16.33;;;16.60;99.90;;;;;;5073013;28;20205;-55
2022/05/01 07:59:09;;;;;;;18.60;15.17;;;16.70;99.90;;;;;;5073318;28;20233;-55
2022/05/01 08:01:35;;;;;;;17.27;14.93;;;16.70;99.90;;;;;;5073210;28;20231;-56
2022/05/01 08:06:48;;;;;;;19.90;16.23;;;16.50;99.90;;;;;;5072728;28;20196;-56
2022/05/01 08:09:15;;;;;;;18.60;15.80;;;16.60;99.90;;;;;;5072891;28;20319;-57
2022/05/01 08:11:41;;;;;;;18.00;15.77;;;16.70;99.90;;;;;;5072896;28;20281;-56
2022/05/01 08:14:12;;;;;;;19.03;15.20;;;17.00;99.90;;;;;;5072543;28;20274;-57
2022/05/01 08:16:39;;;;;;;20.13;16.13;;;17.30;99.90;;;;;;5072701;28;20219;-55
2022/05/01 08:21:52;;;;;;;21.43;16.17;;;17.70;99.90;;;;;;5072548;28;20243;-56
2022/05/01 08:24:19;;;;;;;17.23;15.40;;;17.80;99.90;;;;;;5072755;28;20204;-56
2022/05/01 08:26:47;;;;;;;18.73;15.40;;;17.70;99.90;;;;;;5072562;28;20219;-56
2022/05/01 08:29:14;;;;;;;21.05;15.38;;;17.80;99.90;;;;;;5072348;28;20244;-56
2022/05/01 08:31:42;;;;;;;17.63;15.23;;;17.90;99.90;;;;;;5072880;28;20320;-56
2022/05/01 08:34:09;;;;;;;16.37;14.50;;;18.10;99.90;;;;;;5072436;28;20665;-56
2022/05/01 08:36:37;;;;;;;18.00;15.38;;;18.40;99.90;;;;;;5072385;28;20205;-56
2022/05/01 08:39:06;;;;;;;16.58;14.77;;;18.70;99.90;;;;;;5072434;28;20221;-56
2022/05/01 08:41:33;;;;;;;17.97;15.07;;;19.20;99.90;;;;;;5072230;28;20582;-56
2022/05/01 08:44:01;;;;;;;18.15;16.08;;;19.40;99.90;;;;;;5071787;28;20209;-57
2022/05/01 08:46:48;;;;;;;15.43;13.75;;;19.70;99.90;;;;;;5071844;28;20201;-56
2022/05/01 08:49:17;;;;;;;15.25;13.45;;;19.90;99.60;;;;;;5072081;28;20221;-56
2022/05/01 08:51:44;;;;;;;15.52;13.73;;;20.20;98.80;;;;;;5072135;28;20302;-56
2022/05/01 08:54:14;;;;;;;15.80;14.00;;;20.30;98.20;;;;;;5071699;28;20201;-56
2022/05/01 08:56:43;;;;;;;16.17;13.80;;;20.30;98.20;;;;;;5071680;28;20205;-56
2022/05/01 08:59:11;;;;;;;13.38;11.98;;;20.20;98.20;;;;;;5071761;28;20243;-57
2022/05/01 09:01:39;;;;;;;14.00;12.50;;;20.40;97.50;;;;;;5071370;28;20205;-56
2022/05/01 09:04:08;;;;;;;15.23;12.95;;;20.20;97.10;;;;;;5071842;28;20213;-57
2022/05/01 09:06:36;;;;;;;16.17;13.50;;;19.80;97.80;;;;;;5071785;28;20212;-57
2022/05/01 09:09:05;;;;;;;14.93;13.32;;;19.40;98.60;;;;;;5071791;28;20329;-57
2022/05/01 09:14:18;;;;;;;16.13;13.05;;;19.40;98.40;;;;;;5071839;28;20254;-57
2022/05/01 09:17:14;;;;;;;13.43;12.02;;;19.70;97.90;;;;;;5071686;28;20234;-57
2022/05/01 09:19:41;;;;;;;17.40;12.50;;;19.70;97.70;;;;;;5071675;28;20787;-58
2022/05/01 09:22:08;;;;;;;14.65;13.15;;;19.80;96.90;;;;;;5071934;28;20284;-57
2022/05/01 09:24:35;;;;;;;16.58;12.90;;;19.80;97.00;;;;;;5071474;28;20208;-57
2022/05/01 09:27:03;;;;;;;15.75;13.05;;;19.80;96.50;;;;;;5071631;28;20204;-56
2022/05/01 09:29:34;;;;;;;14.05;12.43;;;19.70;96.10;;;;;;5071913;28;20208;-57
2022/05/01 09:32:03;;;;;;;14.10;12.00;;;19.50;96.20;;;;;;5071641;28;20233;-56
2022/05/01 09:34:32;;;;;;;14.43;12.85;;;19.60;96.20;;;;;;5071340;28;20228;-56
2022/05/01 09:37:03;;;;;;;14.60;12.93;;;19.70;96.50;;;;;;5071992;28;20204;-56
2022/05/01 09:39:31;;;;;;;13.48;11.63;;;20.00;96.10;;;;;;5071691;28;20223;-56
2022/05/01 09:42:14;;;;;;;13.75;11.27;;;20.50;95.70;;;;;;5071867;28;20664;-56
2022/05/01 09:44:41;;;;;;;12.43;11.13;;;20.90;94.40;;;;;;5071387;28;20205;-56
2022/05/01 09:47:08;;;;;;;12.77;11.43;;;21.10;94.10;;;;;;5071483;28;20211;-56
2022/05/01 09:49:49;;;;;;;14.30;11.90;;;21.30;93.90;;;;;;5071755;28;20205;-57
2022/05/01 09:52:16;;;;;;;13.68;11.75;;;21.60;93.30;;;;;;5071897;28;20309;-56
2022/05/01 09:55:01;;;;;;;14.52;11.68;;;21.50;92.70;;;;;;5071414;28;20200;-58
2022/05/01 09:57:28;;;;;;;14.48;12.07;;;20.60;93.60;;;;;;5070830;28;20260;-57
2022/05/01 09:59:55;;;;;;;12.13;10.82;;;20.20;94.20;;;;;;5071658;28;20244;-58
2022/05/01 10:02:29;;;;;;;23.40;17.52;;;20.40;94.60;;;;;;5071581;28;20208;-56
2022/05/01 10:05:02;;;;;;;13.27;11.60;;;20.80;93.40;;;;;;5071078;28;20300;-58
2022/05/01 10:07:32;;;;;;;12.40;11.10;;;21.10;92.90;;;;;;5071453;28;20260;-59
2022/05/01 10:09:59;;;;;;;12.02;10.27;;;21.50;92.70;;;;;;5071623;28;20258;-59
2022/05/01 10:12:30;;;;;;;14.30;11.63;;;21.80;92.20;;;;;;5071340;28;20228;-58
2022/05/01 10:14:57;;;;;;;11.52;10.35;;;21.80;92.90;;;;;;5075028;28;20205;-58
2022/05/01 10:17:24;;;;;;;12.32;11.13;;;21.60;93.20;;;;;;5075074;28;20274;-60
2022/05/01 10:19:51;;;;;;;11.48;10.30;;;21.40;93.50;;;;;;5075280;28;20213;-58
2022/05/01 10:22:20;;;;;;;14.65;10.57;;;21.20;93.50;;;;;;5074759;28;20197;-58
2022/05/01 10:24:47;;;;;;;12.80;11.45;;;21.20;92.80;;;;;;5074564;28;20700;-58
2022/05/01 10:27:28;;;;;;;11.55;10.13;;;21.40;92.90;;;;;;5074993;28;20652;-58
2022/05/01 10:33:16;;;;;;;12.15;10.88;;;21.80;91.60;;;;;;5074512;28;20351;-59
2022/05/01 10:36:08;;;;;;;13.38;11.40;;;21.40;91.00;;;;;;5074865;28;20209;-58
2022/05/01 10:38:45;;;;;;;14.70;10.68;;;21.10;91.60;;;;;;5074772;28;20716;-58
2022/05/01 10:41:12;;;;;;;12.82;11.32;;;20.80;92.40;;;;;;5074726;28;20204;-58
2022/05/01 10:43:39;;;;;;;11.93;10.70;;;20.70;92.80;;;;;;5074265;28;20197;-58
2022/05/01 10:46:29;;;;;;;12.80;10.85;;;20.70;92.40;;;;;;5074708;28;20212;-58
2022/05/01 10:49:00;;;;;;;11.38;10.18;;;20.70;92.80;;;;;;5074385;28;20316;-58
2022/05/01 10:51:44;;;;;;;13.82;11.18;;;20.50;92.50;;;;;;5074300;28;20205;-58
2022/05/01 10:54:34;;;;;;;15.20;12.40;;;20.20;93.00;;;;;;5074024;28;20221;-58
2022/05/01 10:57:14;;;;;;;12.30;11.00;;;20.00;93.70;;;;;;5074171;28;20291;-60
2022/05/01 10:59:47;;;;;;;11.95;10.75;;;20.40;93.00;;;;;;5074216;28;20220;-59
2022/05/01 11:02:24;;;;;;;16.70;12.45;;;20.80;92.60;;;;;;5074492;28;20693;-57
2022/05/01 11:04:52;;;;;;;18.02;15.00;;;21.20;91.90;;;;;;5074089;28;20213;-58
2022/05/01 11:07:19;;;;;;;11.93;10.55;;;21.40;91.50;;;;;;5073959;28;20567;-58
2022/05/01 11:09:48;;;;;;;13.57;10.70;;;21.40;90.40;;;;;;5074126;28;20205;-58
2022/05/01 11:12:17;;;;;;;12.63;11.07;;;21.50;90.90;;;;;;5073670;28;20209;-58
2022/05/01 11:14:51;;;;;;;11.38;9.45;;;21.70;90.40;;;;;;5073997;28;20231;-59
2022/05/01 11:17:44;;;;;;;11.50;9.68;;;22.00;88.50;;;;;;5074014;28;20675;-60
2022/05/01 11:20:25;;;;;;;11.27;9.88;;;22.20;89.00;;;;;;5057632;28;20255;-59
2022/05/01 11:22:52;;;;;;;14.82;11.48;;;22.40;87.70;;;;;;5073697;28;20212;-59
2022/05/01 11:25:31;;;;;;;10.18;9.18;;;22.50;87.40;;;;;;5073630;28;20205;-59
2022/05/01 11:27:58;;;;;;;11.52;8.93;;;22.60;86.20;;;;;;5073859;28;20319;-59
2022/05/01 11:30:36;;;;;;;10.32;9.05;;;22.60;85.50;;;;;;5073836;28;20216;-58
2022/05/01 11:33:05;;;;;;;11.25;8.52;;;22.60;85.10;;;;;;5073394;28;20632;-58
2022/05/01 11:35:55;;;;;;;17.52;11.10;;;22.60;84.10;;;;;;5073855;28;20228;-59
2022/05/01 11:38:23;;;;;;;12.60;8.63;;;22.70;84.50;;;;;;5073615;28;20228;-58
2022/05/01 11:40:57;;;;;;;8.95;7.85;;;23.00;83.40;;;;;;5073531;28;20292;-58
2022/05/01 11:43:24;;;;;;;9.20;8.30;;;23.50;82.30;;;;;;5073041;28;20616;-58
2022/05/01 11:45:51;;;;;;;10.05;8.55;;;23.70;81.00;;;;;;5073391;28;20262;-59
2022/05/01 11:48:19;;;;;;;10.18;8.85;;;23.90;81.20;;;;;;5073910;28;20236;-58
2022/05/01 11:50:50;;;;;;;9.40;8.27;;;24.00;79.60;;;;;;5073617;28;20240;-57
2022/05/01 11:53:23;;;;;;;11.40;8.65;;;23.80;79.60;;;;;;5073097;28;20731;-57
2022/05/01 12:04:26;;;;;;;12.43;9.43;;;21.00;85.80;;;;;;5072383;28;20196;-58
2022/05/01 12:07:01;;;;;;;10.10;8.93;;;20.50;87.70;;;;;;5073111;28;20201;-58
2022/05/01 12:09:30;;;;;;;9.95;8.30;;;20.60;87.10;;;;;;5073088;28;20205;-58
2022/05/01 12:11:56;;;;;;;9.85;8.27;;;20.80;87.60;;;;;;5072582;28;20213;-60
2022/05/01 12:14:25;;;;;;;9.25;8.27;;;20.90;86.60;;;;;;5072888;28;20224;-60
2022/05/01 12:16:52;;;;;;;9.18;8.23;;;21.10;85.80;;;;;;5072429;28;20204;-61
2022/05/01 12:19:20;;;;;;;9.95;8.27;;;21.10;86.00;;;;;;5073139;28;20229;-65
2022/05/01 12:21:47;;;;;;;10.40;8.57;;;21.10;86.20;;;;;;5071763;28;20911;-57
2022/05/01 12:24:13;;;;;;;8.85;7.95;;;21.10;86.60;;;;;;5072899;28;20197;-57
2022/05/01 12:26:49;;;;;;;9.40;8.40;;;21.50;85.70;;;;;;5072788;28;20296;-57
2022/05/01 12:29:16;;;;;;;9.00;8.10;;;21.80;83.80;;;;;;5072771;28;20587;-58
2022/05/01 12:32:01;;;;;;;12.40;8.25;;;21.80;83.80;;;;;;5072838;28;20205;-57
2022/05/01 12:34:29;;;;;;;9.70;8.10;;;21.90;82.80;;;;;;5072439;28;20779;-57
2022/05/01 12:36:57;;;;;;;11.20;8.75;;;22.20;81.90;;;;;;5071817;28;20217;-57
2022/05/01 12:39:24;;;;;;;11.52;8.43;;;22.50;81.80;;;;;;5072398;28;20323;-57
2022/05/01 12:45:09;;;;;;;10.52;8.40;;;22.40;82.70;;;;;;5072302;28;20262;-57
2022/05/01 12:47:38;;;;;;;10.73;8.50;;;22.40;82.50;;;;;;5072503;28;20311;-58
2022/05/01 12:50:08;;;;;;;9.18;8.15;;;22.60;81.70;;;;;;5072589;28;20205;-58
2022/05/01 12:52:36;;;;;;;13.10;8.80;;;22.30;81.90;;;;;;5072572;28;20208;-57
2022/05/01 12:55:08;;;;;;;9.60;8.60;;;21.60;83.10;;;;;;5072598;28;20271;-58
2022/05/01 12:57:40;;;;;;;9.60;7.70;;;21.20;84.50;;;;;;5072182;28;20293;-58
2022/05/01 13:00:08;;;;;;;9.20;7.78;;;21.20;85.20;;;;;;5072372;28;20213;-58
2022/05/01 13:02:35;;;;;;;9.65;7.88;;;21.00;85.20;;;;;;5072186;28;20200;-58
2022/05/01 13:05:03;;;;;;;10.80;8.25;;;21.10;85.60;;;;;;5072301;28;20209;-57
2022/05/01 13:07:30;;;;;;;8.60;7.78;;;21.30;85.10;;;;;;5072463;28;20321;-58
2022/05/01 13:09:57;;;;;;;9.60;7.82;;;21.50;84.30;;;;;;5072361;28;20201;-57
2022/05/01 13:12:31;;;;;;;9.38;7.60;;;21.70;82.60;;;;;;5072199;28;20242;-58
2022/05/01 13:15:02;;;;;;;8.57;7.68;;;21.50;82.90;;;;;;5071849;28;20235;-57
2022/05/01 13:17:29;;;;;;;9.02;7.50;;;21.40;84.00;;;;;;5071773;28;20225;-57